sensor_id;sensor_type;location;lat;lon;timestamp;P1;durP1;ratioP1;P2;durP2;ratioP2
14098;SDS011;7126;48.458;7.930;2023-02-11T00:03:51;0.87;;;0.87;;
14098;SDS011;7126;48.458;7.930;2023-02-11T00:06:17;2.60;;;2.40;;
14098;SDS011;7126;48.458;7.930;2023-02-11T00:08:43;1.00;;;0.73;;
14098;SDS011;7126;48.458;7.930;2023-02-11T00:11:11;1.70;;;1.60;;
14098;SDS011;7126;48.458;7.930;2023-02-11T00:13:38;1.80;;;1.00;;
14098;SDS011;7126;48.458;7.930;2023-02-11T00:16:07;1.57;;;1.57;;
14098;SDS011;7126;48.458;7.930;2023-02-11T00:18:35;1.97;;;1.47;;
14098;SDS011;7126;48.458;7.930;2023-02-11T00:21:08;1.03;;;1.03;;
14098;SDS011;7126;48.458;7.930;2023-02-11T00:23:35;2.03;;;1.90;;
14098;SDS011;7126;48.458;7.930;2023-02-11T00:26:02;1.47;;;1.37;;
14098;SDS011;7126;48.458;7.930;2023-02-11T00:28:28;1.10;;;1.10;;
14098;SDS011;7126;48.458;7.930;2023-02-11T00:30:55;1.90;;;1.57;;
14098;SDS011;7126;48.458;7.930;2023-02-11T00:33:21;0.47;;;0.47;;
14098;SDS011;7126;48.458;7.930;2023-02-11T00:35:47;6.43;;;1.27;;
14098;SDS011;7126;48.458;7.930;2023-02-11T00:38:13;0.43;;;0.43;;
14098;SDS011;7126;48.458;7.930;2023-02-11T00:40:38;1.03;;;1.03;;
14098;SDS011;7126;48.458;7.930;2023-02-11T00:43:04;1.03;;;1.03;;
14098;SDS011;7126;48.458;7.930;2023-02-11T00:45:29;1.47;;;1.37;;
14098;SDS011;7126;48.458;7.930;2023-02-11T00:47:55;1.50;;;1.40;;
14098;SDS011;7126;48.458;7.930;2023-02-11T00:50:21;0.70;;;0.70;;
14098;SDS011;7126;48.458;7.930;2023-02-11T00:52:47;0.80;;;0.80;;
14098;SDS011;7126;48.458;7.930;2023-02-11T00:55:12;0.80;;;0.80;;
14098;SDS011;7126;48.458;7.930;2023-02-11T00:57:38;2.27;;;2.07;;
14098;SDS011;7126;48.458;7.930;2023-02-11T01:00:04;1.30;;;1.30;;
14098;SDS011;7126;48.458;7.930;2023-02-11T01:02:31;2.00;;;1.83;;
14098;SDS011;7126;48.458;7.930;2023-02-11T01:04:57;1.40;;;0.47;;
14098;SDS011;7126;48.458;7.930;2023-02-11T01:07:24;1.03;;;1.00;;
14098;SDS011;7126;48.458;7.930;2023-02-11T01:09:50;2.13;;;1.43;;
14098;SDS011;7126;48.458;7.930;2023-02-11T01:12:15;2.20;;;1.03;;
14098;SDS011;7126;48.458;7.930;2023-02-11T01:14:41;1.63;;;1.63;;
14098;SDS011;7126;48.458;7.930;2023-02-11T01:17:06;0.80;;;0.80;;
14098;SDS011;7126;48.458;7.930;2023-02-11T01:19:32;1.80;;;1.20;;
14098;SDS011;7126;48.458;7.930;2023-02-11T01:21:58;1.53;;;1.10;;
14098;SDS011;7126;48.458;7.930;2023-02-11T01:24:23;1.13;;;1.13;;
14098;SDS011;7126;48.458;7.930;2023-02-11T01:26:49;1.30;;;1.30;;
14098;SDS011;7126;48.458;7.930;2023-02-11T01:29:15;2.47;;;1.57;;
14098;SDS011;7126;48.458;7.930;2023-02-11T01:31:40;0.60;;;0.60;;
14098;SDS011;7126;48.458;7.930;2023-02-11T01:34:06;1.00;;;1.00;;
14098;SDS011;7126;48.458;7.930;2023-02-11T01:36:31;1.93;;;1.23;;
14098;SDS011;7126;48.458;7.930;2023-02-11T01:38:57;0.80;;;0.80;;
14098;SDS011;7126;48.458;7.930;2023-02-11T01:41:22;1.20;;;1.20;;
14098;SDS011;7126;48.458;7.930;2023-02-11T01:43:48;1.10;;;1.10;;
14098;SDS011;7126;48.458;7.930;2023-02-11T01:51:53;1.80;;;1.70;;
14098;SDS011;7126;48.458;7.930;2023-02-11T01:54:29;0.60;;;0.60;;
14098;SDS011;7126;48.458;7.930;2023-02-11T01:57:20;1.20;;;1.20;;
14098;SDS011;7126;48.458;7.930;2023-02-11T02:05:34;1.07;;;1.07;;
14098;SDS011;7126;48.458;7.930;2023-02-11T02:08:22;1.40;;;1.30;;
14098;SDS011;7126;48.458;7.930;2023-02-11T02:11:01;0.97;;;0.97;;
14098;SDS011;7126;48.458;7.930;2023-02-11T02:13:28;1.20;;;1.20;;
14098;SDS011;7126;48.458;7.930;2023-02-11T02:15:59;1.23;;;0.73;;
14098;SDS011;7126;48.458;7.930;2023-02-11T02:24:30;0.77;;;0.77;;
14098;SDS011;7126;48.458;7.930;2023-02-11T02:38:24;0.70;;;0.70;;
14098;SDS011;7126;48.458;7.930;2023-02-11T02:41:15;0.17;;;0.17;;
14098;SDS011;7126;48.458;7.930;2023-02-11T02:43:44;0.30;;;0.30;;
14098;SDS011;7126;48.458;7.930;2023-02-11T02:46:15;1.70;;;0.40;;
14098;SDS011;7126;48.458;7.930;2023-02-11T02:48:44;1.03;;;0.97;;
14098;SDS011;7126;48.458;7.930;2023-02-11T03:00:07;0.90;;;0.90;;
14098;SDS011;7126;48.458;7.930;2023-02-11T03:06:07;0.80;;;0.77;;
14098;SDS011;7126;48.458;7.930;2023-02-11T03:08:50;1.03;;;1.03;;
14098;SDS011;7126;48.458;7.930;2023-02-11T03:11:23;1.13;;;1.10;;
14098;SDS011;7126;48.458;7.930;2023-02-11T03:13:50;0.70;;;0.70;;
14098;SDS011;7126;48.458;7.930;2023-02-11T03:16:25;1.33;;;1.33;;
14098;SDS011;7126;48.458;7.930;2023-02-11T03:18:55;4.17;;;1.30;;
14098;SDS011;7126;48.458;7.930;2023-02-11T03:21:26;1.73;;;0.97;;
14098;SDS011;7126;48.458;7.930;2023-02-11T03:23:53;1.33;;;0.80;;
14098;SDS011;7126;48.458;7.930;2023-02-11T03:29:15;0.77;;;0.70;;
14098;SDS011;7126;48.458;7.930;2023-02-11T03:34:36;1.27;;;1.20;;
14098;SDS011;7126;48.458;7.930;2023-02-11T03:37:27;0.63;;;0.63;;
14098;SDS011;7126;48.458;7.930;2023-02-11T03:40:05;1.70;;;0.83;;
14098;SDS011;7126;48.458;7.930;2023-02-11T03:42:37;1.80;;;1.70;;
14098;SDS011;7126;48.458;7.930;2023-02-11T03:45:08;0.87;;;0.80;;
14098;SDS011;7126;48.458;7.930;2023-02-11T03:47:37;2.33;;;0.83;;
14098;SDS011;7126;48.458;7.930;2023-02-11T03:50:08;0.30;;;0.30;;
14098;SDS011;7126;48.458;7.930;2023-02-11T03:52:36;0.50;;;0.50;;
14098;SDS011;7126;48.458;7.930;2023-02-11T03:55:04;1.83;;;1.27;;
14098;SDS011;7126;48.458;7.930;2023-02-11T03:57:33;1.17;;;1.00;;
14098;SDS011;7126;48.458;7.930;2023-02-11T03:59:59;1.27;;;1.20;;
14098;SDS011;7126;48.458;7.930;2023-02-11T04:02:29;1.73;;;1.63;;
14098;SDS011;7126;48.458;7.930;2023-02-11T04:04:57;1.30;;;1.20;;
14098;SDS011;7126;48.458;7.930;2023-02-11T04:07:23;0.93;;;0.93;;
14098;SDS011;7126;48.458;7.930;2023-02-11T04:09:49;1.07;;;0.67;;
14098;SDS011;7126;48.458;7.930;2023-02-11T04:12:15;0.90;;;0.90;;
14098;SDS011;7126;48.458;7.930;2023-02-11T04:14:40;0.43;;;0.43;;
14098;SDS011;7126;48.458;7.930;2023-02-11T04:17:06;1.50;;;1.40;;
14098;SDS011;7126;48.458;7.930;2023-02-11T04:19:31;1.67;;;1.10;;
14098;SDS011;7126;48.458;7.930;2023-02-11T04:21:57;2.03;;;1.20;;
14098;SDS011;7126;48.458;7.930;2023-02-11T04:24:23;1.07;;;0.90;;
14098;SDS011;7126;48.458;7.930;2023-02-11T04:26:49;0.90;;;0.90;;
14098;SDS011;7126;48.458;7.930;2023-02-11T04:29:14;1.50;;;1.50;;
14098;SDS011;7126;48.458;7.930;2023-02-11T04:31:40;1.13;;;1.00;;
14098;SDS011;7126;48.458;7.930;2023-02-11T04:34:05;0.83;;;0.83;;
14098;SDS011;7126;48.458;7.930;2023-02-11T04:36:31;0.83;;;0.83;;
14098;SDS011;7126;48.458;7.930;2023-02-11T04:38:56;1.03;;;0.87;;
14098;SDS011;7126;48.458;7.930;2023-02-11T04:41:22;2.87;;;1.37;;
14098;SDS011;7126;48.458;7.930;2023-02-11T04:43:47;1.13;;;1.13;;
14098;SDS011;7126;48.458;7.930;2023-02-11T04:46:13;2.27;;;1.33;;
14098;SDS011;7126;48.458;7.930;2023-02-11T04:48:38;2.40;;;1.80;;
14098;SDS011;7126;48.458;7.930;2023-02-11T04:51:04;1.03;;;1.03;;
14098;SDS011;7126;48.458;7.930;2023-02-11T04:53:30;1.67;;;1.67;;
14098;SDS011;7126;48.458;7.930;2023-02-11T04:55:55;0.37;;;0.37;;
14098;SDS011;7126;48.458;7.930;2023-02-11T04:58:21;0.40;;;0.40;;
14098;SDS011;7126;48.458;7.930;2023-02-11T05:00:48;1.73;;;1.63;;
14098;SDS011;7126;48.458;7.930;2023-02-11T05:03:14;0.67;;;0.67;;
14098;SDS011;7126;48.458;7.930;2023-02-11T05:05:41;1.23;;;1.23;;
14098;SDS011;7126;48.458;7.930;2023-02-11T05:08:07;1.30;;;1.23;;
14098;SDS011;7126;48.458;7.930;2023-02-11T05:10:36;0.87;;;0.87;;
14098;SDS011;7126;48.458;7.930;2023-02-11T05:13:02;1.30;;;1.20;;
14098;SDS011;7126;48.458;7.930;2023-02-11T05:15:28;0.97;;;0.67;;
14098;SDS011;7126;48.458;7.930;2023-02-11T05:17:53;1.13;;;1.03;;
14098;SDS011;7126;48.458;7.930;2023-02-11T05:20:20;1.07;;;0.80;;
14098;SDS011;7126;48.458;7.930;2023-02-11T05:22:45;0.47;;;0.47;;
14098;SDS011;7126;48.458;7.930;2023-02-11T05:25:11;0.93;;;0.93;;
14098;SDS011;7126;48.458;7.930;2023-02-11T05:27:36;0.67;;;0.67;;
14098;SDS011;7126;48.458;7.930;2023-02-11T05:30:03;1.43;;;1.10;;
14098;SDS011;7126;48.458;7.930;2023-02-11T05:32:29;1.33;;;1.30;;
14098;SDS011;7126;48.458;7.930;2023-02-11T05:34:55;3.67;;;1.10;;
14098;SDS011;7126;48.458;7.930;2023-02-11T05:37:20;0.83;;;0.83;;
14098;SDS011;7126;48.458;7.930;2023-02-11T05:39:46;0.73;;;0.60;;
14098;SDS011;7126;48.458;7.930;2023-02-11T05:42:12;0.80;;;0.63;;
14098;SDS011;7126;48.458;7.930;2023-02-11T05:44:38;1.10;;;1.10;;
14098;SDS011;7126;48.458;7.930;2023-02-11T05:47:03;0.43;;;0.43;;
14098;SDS011;7126;48.458;7.930;2023-02-11T05:49:29;0.83;;;0.83;;
14098;SDS011;7126;48.458;7.930;2023-02-11T05:51:54;4.70;;;1.47;;
14098;SDS011;7126;48.458;7.930;2023-02-11T05:54:20;0.70;;;0.70;;
14098;SDS011;7126;48.458;7.930;2023-02-11T05:56:45;0.30;;;0.30;;
14098;SDS011;7126;48.458;7.930;2023-02-11T05:59:12;0.97;;;0.97;;
14098;SDS011;7126;48.458;7.930;2023-02-11T06:01:38;0.30;;;0.30;;
14098;SDS011;7126;48.458;7.930;2023-02-11T06:04:04;1.13;;;1.13;;
14098;SDS011;7126;48.458;7.930;2023-02-11T06:06:30;0.97;;;0.97;;
14098;SDS011;7126;48.458;7.930;2023-02-11T06:08:56;0.60;;;0.60;;
14098;SDS011;7126;48.458;7.930;2023-02-11T06:11:21;1.37;;;0.80;;
14098;SDS011;7126;48.458;7.930;2023-02-11T06:13:47;1.73;;;1.63;;
14098;SDS011;7126;48.458;7.930;2023-02-11T06:16:13;0.73;;;0.70;;
14098;SDS011;7126;48.458;7.930;2023-02-11T06:18:38;2.57;;;1.10;;
14098;SDS011;7126;48.458;7.930;2023-02-11T06:21:07;3.77;;;1.43;;
14098;SDS011;7126;48.458;7.930;2023-02-11T06:23:34;2.63;;;2.43;;
14098;SDS011;7126;48.458;7.930;2023-02-11T06:26:02;0.97;;;0.97;;
14098;SDS011;7126;48.458;7.930;2023-02-11T06:28:28;0.63;;;0.63;;
14098;SDS011;7126;48.458;7.930;2023-02-11T06:30:55;0.77;;;0.77;;
14098;SDS011;7126;48.458;7.930;2023-02-11T06:33:21;1.17;;;1.00;;
14098;SDS011;7126;48.458;7.930;2023-02-11T06:35:47;0.97;;;0.97;;
14098;SDS011;7126;48.458;7.930;2023-02-11T06:38:13;1.50;;;1.40;;
14098;SDS011;7126;48.458;7.930;2023-02-11T06:40:38;1.00;;;1.00;;
14098;SDS011;7126;48.458;7.930;2023-02-11T06:43:04;0.57;;;0.57;;
14098;SDS011;7126;48.458;7.930;2023-02-11T06:45:30;1.17;;;0.90;;
14098;SDS011;7126;48.458;7.930;2023-02-11T06:47:55;0.80;;;0.80;;
14098;SDS011;7126;48.458;7.930;2023-02-11T06:50:21;0.63;;;0.63;;
14098;SDS011;7126;48.458;7.930;2023-02-11T06:52:47;1.43;;;1.33;;
14098;SDS011;7126;48.458;7.930;2023-02-11T06:55:13;0.63;;;0.50;;
14098;SDS011;7126;48.458;7.930;2023-02-11T06:57:38;0.63;;;0.63;;
14098;SDS011;7126;48.458;7.930;2023-02-11T07:00:04;0.30;;;0.30;;
14098;SDS011;7126;48.458;7.930;2023-02-11T07:02:30;0.93;;;0.93;;
14098;SDS011;7126;48.458;7.930;2023-02-11T07:04:56;0.53;;;0.53;;
14098;SDS011;7126;48.458;7.930;2023-02-11T07:07:21;1.17;;;0.90;;
14098;SDS011;7126;48.458;7.930;2023-02-11T07:09:47;1.20;;;0.87;;
14098;SDS011;7126;48.458;7.930;2023-02-11T07:12:12;1.50;;;1.50;;
14098;SDS011;7126;48.458;7.930;2023-02-11T07:14:38;2.77;;;1.23;;
14098;SDS011;7126;48.458;7.930;2023-02-11T07:17:04;1.23;;;1.23;;
14098;SDS011;7126;48.458;7.930;2023-02-11T07:19:29;2.03;;;1.90;;
14098;SDS011;7126;48.458;7.930;2023-02-11T07:21:55;1.37;;;1.27;;
14098;SDS011;7126;48.458;7.930;2023-02-11T07:24:20;1.73;;;1.73;;
14098;SDS011;7126;48.458;7.930;2023-02-11T07:26:47;1.00;;;1.00;;
14098;SDS011;7126;48.458;7.930;2023-02-11T07:29:12;0.77;;;0.77;;
14098;SDS011;7126;48.458;7.930;2023-02-11T07:31:38;1.13;;;1.13;;
14098;SDS011;7126;48.458;7.930;2023-02-11T07:34:03;1.10;;;1.10;;
14098;SDS011;7126;48.458;7.930;2023-02-11T07:36:30;1.43;;;0.57;;
14098;SDS011;7126;48.458;7.930;2023-02-11T07:38:56;6.53;;;0.67;;
14098;SDS011;7126;48.458;7.930;2023-02-11T07:41:22;1.30;;;1.30;;
14098;SDS011;7126;48.458;7.930;2023-02-11T07:43:49;1.10;;;1.10;;
14098;SDS011;7126;48.458;7.930;2023-02-11T07:46:16;0.93;;;0.93;;
14098;SDS011;7126;48.458;7.930;2023-02-11T07:48:45;1.03;;;0.87;;
14098;SDS011;7126;48.458;7.930;2023-02-11T07:51:12;0.87;;;0.87;;
14098;SDS011;7126;48.458;7.930;2023-02-11T07:53:57;1.30;;;1.20;;
14098;SDS011;7126;48.458;7.930;2023-02-11T07:56:23;1.90;;;1.80;;
14098;SDS011;7126;48.458;7.930;2023-02-11T07:58:49;3.67;;;1.40;;
14098;SDS011;7126;48.458;7.930;2023-02-11T08:01:24;1.20;;;1.03;;
14098;SDS011;7126;48.458;7.930;2023-02-11T08:03:52;2.33;;;1.60;;
14098;SDS011;7126;48.458;7.930;2023-02-11T08:06:19;2.27;;;2.10;;
14098;SDS011;7126;48.458;7.930;2023-02-11T08:08:46;1.10;;;1.00;;
14098;SDS011;7126;48.458;7.930;2023-02-11T08:11:17;2.07;;;1.70;;
14098;SDS011;7126;48.458;7.930;2023-02-11T08:13:47;0.80;;;0.80;;
14098;SDS011;7126;48.458;7.930;2023-02-11T08:16:26;0.90;;;0.90;;
14098;SDS011;7126;48.458;7.930;2023-02-11T08:18:55;5.00;;;2.00;;
14098;SDS011;7126;48.458;7.930;2023-02-11T08:21:22;1.30;;;0.67;;
14098;SDS011;7126;48.458;7.930;2023-02-11T08:23:48;1.30;;;1.30;;
14098;SDS011;7126;48.458;7.930;2023-02-11T08:26:16;5.60;;;1.70;;
14098;SDS011;7126;48.458;7.930;2023-02-11T08:28:50;1.10;;;0.90;;
14098;SDS011;7126;48.458;7.930;2023-02-11T08:31:21;1.00;;;1.00;;
14098;SDS011;7126;48.458;7.930;2023-02-11T08:33:49;1.37;;;1.27;;
14098;SDS011;7126;48.458;7.930;2023-02-11T08:36:16;0.83;;;0.83;;
14098;SDS011;7126;48.458;7.930;2023-02-11T08:38:44;1.93;;;1.60;;
14098;SDS011;7126;48.458;7.930;2023-02-11T08:41:10;0.77;;;0.77;;
14098;SDS011;7126;48.458;7.930;2023-02-11T08:43:38;0.77;;;0.77;;
14098;SDS011;7126;48.458;7.930;2023-02-11T08:46:05;0.57;;;0.57;;
14098;SDS011;7126;48.458;7.930;2023-02-11T08:48:31;2.03;;;1.63;;
14098;SDS011;7126;48.458;7.930;2023-02-11T08:50:57;1.93;;;1.83;;
14098;SDS011;7126;48.458;7.930;2023-02-11T08:53:22;0.53;;;0.53;;
14098;SDS011;7126;48.458;7.930;2023-02-11T08:55:52;1.27;;;1.27;;
14098;SDS011;7126;48.458;7.930;2023-02-11T08:58:19;0.50;;;0.50;;
14098;SDS011;7126;48.458;7.930;2023-02-11T09:00:46;1.20;;;1.20;;
14098;SDS011;7126;48.458;7.930;2023-02-11T09:03:12;1.83;;;1.73;;
14098;SDS011;7126;48.458;7.930;2023-02-11T09:05:40;3.30;;;2.00;;
14098;SDS011;7126;48.458;7.930;2023-02-11T09:08:11;1.43;;;1.17;;
14098;SDS011;7126;48.458;7.930;2023-02-11T09:10:37;0.77;;;0.70;;
14098;SDS011;7126;48.458;7.930;2023-02-11T09:13:03;1.20;;;1.20;;
14098;SDS011;7126;48.458;7.930;2023-02-11T09:15:29;1.90;;;1.80;;
14098;SDS011;7126;48.458;7.930;2023-02-11T09:17:55;1.43;;;1.43;;
14098;SDS011;7126;48.458;7.930;2023-02-11T09:20:21;1.20;;;1.13;;
14098;SDS011;7126;48.458;7.930;2023-02-11T09:22:47;2.07;;;1.93;;
14098;SDS011;7126;48.458;7.930;2023-02-11T09:25:12;1.67;;;1.57;;
14098;SDS011;7126;48.458;7.930;2023-02-11T09:27:38;1.63;;;1.53;;
14098;SDS011;7126;48.458;7.930;2023-02-11T09:30:04;2.00;;;1.67;;
14098;SDS011;7126;48.458;7.930;2023-02-11T09:32:29;2.03;;;1.93;;
14098;SDS011;7126;48.458;7.930;2023-02-11T09:34:55;2.40;;;2.30;;
14098;SDS011;7126;48.458;7.930;2023-02-11T09:37:21;2.80;;;2.47;;
14098;SDS011;7126;48.458;7.930;2023-02-11T09:39:46;1.80;;;1.70;;
14098;SDS011;7126;48.458;7.930;2023-02-11T09:44:56;1.97;;;1.87;;
14098;SDS011;7126;48.458;7.930;2023-02-11T09:47:26;2.27;;;2.10;;
14098;SDS011;7126;48.458;7.930;2023-02-11T09:50:02;2.57;;;2.47;;
14098;SDS011;7126;48.458;7.930;2023-02-11T09:58:06;2.17;;;2.10;;
14098;SDS011;7126;48.458;7.930;2023-02-11T10:00:39;3.17;;;2.93;;
14098;SDS011;7126;48.458;7.930;2023-02-11T10:22:53;2.60;;;2.03;;
14098;SDS011;7126;48.458;7.930;2023-02-11T10:25:26;2.10;;;1.92;;
14098;SDS011;7126;48.458;7.930;2023-02-11T10:28:10;2.80;;;2.60;;
14098;SDS011;7126;48.458;7.930;2023-02-11T10:30:41;3.92;;;2.15;;
14098;SDS011;7126;48.458;7.930;2023-02-11T10:33:15;2.65;;;2.55;;
14098;SDS011;7126;48.458;7.930;2023-02-11T10:35:50;2.75;;;2.60;;
14098;SDS011;7126;48.458;7.930;2023-02-11T10:38:16;3.13;;;2.80;;
14098;SDS011;7126;48.458;7.930;2023-02-11T10:40:41;3.97;;;3.42;;
14098;SDS011;7126;48.458;7.930;2023-02-11T10:43:09;3.58;;;3.17;;
14098;SDS011;7126;48.458;7.930;2023-02-11T10:45:38;2.35;;;1.92;;
14098;SDS011;7126;48.458;7.930;2023-02-11T10:48:40;2.65;;;2.40;;
14098;SDS011;7126;48.458;7.930;2023-02-11T10:56:35;2.05;;;1.95;;
14098;SDS011;7126;48.458;7.930;2023-02-11T10:59:04;3.35;;;2.63;;
14098;SDS011;7126;48.458;7.930;2023-02-11T11:01:52;4.90;;;4.60;;
14098;SDS011;7126;48.458;7.930;2023-02-11T11:04:41;3.13;;;2.92;;
14098;SDS011;7126;48.458;7.930;2023-02-11T11:07:19;2.50;;;2.33;;
14098;SDS011;7126;48.458;7.930;2023-02-11T11:09:49;3.38;;;3.17;;
14098;SDS011;7126;48.458;7.930;2023-02-11T11:12:22;2.72;;;2.63;;
14098;SDS011;7126;48.458;7.930;2023-02-11T11:17:34;2.97;;;2.53;;
14098;SDS011;7126;48.458;7.930;2023-02-11T11:20:13;4.95;;;4.55;;
14098;SDS011;7126;48.458;7.930;2023-02-11T11:22:44;3.20;;;2.90;;
14098;SDS011;7126;48.458;7.930;2023-02-11T11:27:49;3.55;;;3.03;;
14098;SDS011;7126;48.458;7.930;2023-02-11T11:30:16;4.55;;;3.88;;
14098;SDS011;7126;48.458;7.930;2023-02-11T11:32:43;4.47;;;3.50;;
14098;SDS011;7126;48.458;7.930;2023-02-11T11:35:26;3.30;;;3.10;;
14098;SDS011;7126;48.458;7.930;2023-02-11T11:37:59;4.30;;;3.42;;
14098;SDS011;7126;48.458;7.930;2023-02-11T11:40:31;2.53;;;2.40;;
14098;SDS011;7126;48.458;7.930;2023-02-11T11:43:18;4.28;;;3.63;;
14098;SDS011;7126;48.458;7.930;2023-02-11T11:45:54;3.75;;;3.45;;
14098;SDS011;7126;48.458;7.930;2023-02-11T11:48:39;3.20;;;2.90;;
14098;SDS011;7126;48.458;7.930;2023-02-11T11:51:10;5.63;;;5.13;;
14098;SDS011;7126;48.458;7.930;2023-02-11T11:53:38;2.80;;;2.60;;
14098;SDS011;7126;48.458;7.930;2023-02-11T11:56:20;2.65;;;2.40;;
14098;SDS011;7126;48.458;7.930;2023-02-11T11:58:48;3.00;;;2.80;;
14098;SDS011;7126;48.458;7.930;2023-02-11T12:04:08;2.85;;;2.67;;
14098;SDS011;7126;48.458;7.930;2023-02-11T12:06:49;3.72;;;3.30;;
14098;SDS011;7126;48.458;7.930;2023-02-11T12:12:23;2.83;;;2.50;;
14098;SDS011;7126;48.458;7.930;2023-02-11T12:26:16;2.40;;;2.30;;
14098;SDS011;7126;48.458;7.930;2023-02-11T12:31:26;2.58;;;2.35;;
14098;SDS011;7126;48.458;7.930;2023-02-11T12:37:04;2.20;;;2.00;;
14098;SDS011;7126;48.458;7.930;2023-02-11T12:42:53;6.72;;;2.60;;
14098;SDS011;7126;48.458;7.930;2023-02-11T12:51:09;2.70;;;1.80;;
14098;SDS011;7126;48.458;7.930;2023-02-11T13:05:26;2.75;;;2.55;;
14098;SDS011;7126;48.458;7.930;2023-02-11T13:08:16;4.78;;;1.83;;
14098;SDS011;7126;48.458;7.930;2023-02-11T13:10:57;2.03;;;1.88;;
14098;SDS011;7126;48.458;7.930;2023-02-11T13:13:38;4.05;;;2.55;;
14098;SDS011;7126;48.458;7.930;2023-02-11T13:16:12;1.58;;;1.58;;
14098;SDS011;7126;48.458;7.930;2023-02-11T13:19:00;1.83;;;1.75;;
14098;SDS011;7126;48.458;7.930;2023-02-11T13:27:19;1.67;;;1.60;;
14098;SDS011;7126;48.458;7.930;2023-02-11T13:35:39;2.25;;;2.10;;
14098;SDS011;7126;48.458;7.930;2023-02-11T13:43:25;2.88;;;2.40;;
14098;SDS011;7126;48.458;7.930;2023-02-11T13:45:58;1.45;;;1.40;;
14098;SDS011;7126;48.458;7.930;2023-02-11T13:48:33;1.95;;;1.70;;
14098;SDS011;7126;48.458;7.930;2023-02-11T13:51:14;2.10;;;2.00;;
14098;SDS011;7126;48.458;7.930;2023-02-11T13:53:50;2.83;;;2.20;;
14098;SDS011;7126;48.458;7.930;2023-02-11T13:58:57;2.08;;;1.92;;
14098;SDS011;7126;48.458;7.930;2023-02-11T14:04:34;2.38;;;2.28;;
14098;SDS011;7126;48.458;7.930;2023-02-11T14:16:07;2.25;;;2.05;;
14098;SDS011;7126;48.458;7.930;2023-02-11T14:21:13;2.97;;;2.78;;
14098;SDS011;7126;48.458;7.930;2023-02-11T14:26:47;2.58;;;2.38;;
14098;SDS011;7126;48.458;7.930;2023-02-11T14:29:33;3.33;;;3.03;;
14098;SDS011;7126;48.458;7.930;2023-02-11T14:37:25;2.05;;;1.95;;
14098;SDS011;7126;48.458;7.930;2023-02-11T14:40:30;3.47;;;2.53;;
14098;SDS011;7126;48.458;7.930;2023-02-11T14:43:15;2.83;;;2.60;;
14098;SDS011;7126;48.458;7.930;2023-02-11T14:45:47;2.67;;;2.47;;
14098;SDS011;7126;48.458;7.930;2023-02-11T14:48:16;2.47;;;2.28;;
14098;SDS011;7126;48.458;7.930;2023-02-11T14:50:52;3.35;;;2.03;;
14098;SDS011;7126;48.458;7.930;2023-02-11T14:53:23;3.55;;;2.38;;
14098;SDS011;7126;48.458;7.930;2023-02-11T14:55:51;4.50;;;2.63;;
14098;SDS011;7126;48.458;7.930;2023-02-11T14:58:25;2.53;;;2.33;;
14098;SDS011;7126;48.458;7.930;2023-02-11T15:00:56;2.47;;;2.28;;
14098;SDS011;7126;48.458;7.930;2023-02-11T15:08:44;3.42;;;3.08;;
14098;SDS011;7126;48.458;7.930;2023-02-11T15:11:40;2.80;;;2.30;;
14098;SDS011;7126;48.458;7.930;2023-02-11T15:16:44;3.47;;;3.17;;
14098;SDS011;7126;48.458;7.930;2023-02-11T15:22:00;2.40;;;2.30;;
14098;SDS011;7126;48.458;7.930;2023-02-11T15:24:31;2.13;;;1.95;;
14098;SDS011;7126;48.458;7.930;2023-02-11T15:27:03;2.88;;;2.67;;
14098;SDS011;7126;48.458;7.930;2023-02-11T15:29:43;5.28;;;2.97;;
14098;SDS011;7126;48.458;7.930;2023-02-11T15:34:46;2.33;;;2.15;;
14098;SDS011;7126;48.458;7.930;2023-02-11T15:37:19;2.53;;;2.25;;
14098;SDS011;7126;48.458;7.930;2023-02-11T15:39:50;3.30;;;2.72;;
14098;SDS011;7126;48.458;7.930;2023-02-11T15:45:07;2.38;;;2.28;;
14098;SDS011;7126;48.458;7.930;2023-02-11T15:47:35;2.05;;;1.90;;
14098;SDS011;7126;48.458;7.930;2023-02-11T15:50:02;3.20;;;2.75;;
14098;SDS011;7126;48.458;7.930;2023-02-11T15:52:28;4.57;;;2.40;;
14098;SDS011;7126;48.458;7.930;2023-02-11T15:54:55;3.50;;;2.30;;
14098;SDS011;7126;48.458;7.930;2023-02-11T15:57:25;2.70;;;2.50;;
14098;SDS011;7126;48.458;7.930;2023-02-11T15:59:52;3.03;;;2.83;;
14098;SDS011;7126;48.458;7.930;2023-02-11T16:02:28;2.10;;;2.00;;
14098;SDS011;7126;48.458;7.930;2023-02-11T16:04:57;3.75;;;3.13;;
14098;SDS011;7126;48.458;7.930;2023-02-11T16:17:57;2.63;;;2.20;;
14098;SDS011;7126;48.458;7.930;2023-02-11T16:20:28;2.75;;;2.60;;
14098;SDS011;7126;48.458;7.930;2023-02-11T16:22:54;2.38;;;2.28;;
14098;SDS011;7126;48.458;7.930;2023-02-11T16:25:20;2.90;;;2.20;;
14098;SDS011;7126;48.458;7.930;2023-02-11T16:27:50;2.75;;;2.17;;
14098;SDS011;7126;48.458;7.930;2023-02-11T16:30:21;3.28;;;2.78;;
14098;SDS011;7126;48.458;7.930;2023-02-11T16:32:51;3.28;;;3.08;;
14098;SDS011;7126;48.458;7.930;2023-02-11T16:35:18;3.47;;;2.85;;
14098;SDS011;7126;48.458;7.930;2023-02-11T16:37:43;2.33;;;2.13;;
14098;SDS011;7126;48.458;7.930;2023-02-11T16:40:10;3.13;;;2.22;;
14098;SDS011;7126;48.458;7.930;2023-02-11T16:42:36;2.10;;;1.92;;
14098;SDS011;7126;48.458;7.930;2023-02-11T16:45:02;5.25;;;3.38;;
14098;SDS011;7126;48.458;7.930;2023-02-11T16:47:28;2.22;;;2.10;;
14098;SDS011;7126;48.458;7.930;2023-02-11T16:49:55;2.92;;;2.63;;
14098;SDS011;7126;48.458;7.930;2023-02-11T16:52:21;3.63;;;3.30;;
14098;SDS011;7126;48.458;7.930;2023-02-11T16:54:48;7.30;;;2.58;;
14098;SDS011;7126;48.458;7.930;2023-02-11T16:57:14;3.42;;;2.45;;
14098;SDS011;7126;48.458;7.930;2023-02-11T16:59:48;2.67;;;2.53;;
14098;SDS011;7126;48.458;7.930;2023-02-11T17:02:15;2.85;;;2.60;;
14098;SDS011;7126;48.458;7.930;2023-02-11T17:04:46;3.88;;;2.90;;
14098;SDS011;7126;48.458;7.930;2023-02-11T17:07:12;4.55;;;4.25;;
14098;SDS011;7126;48.458;7.930;2023-02-11T17:09:38;3.10;;;2.90;;
14098;SDS011;7126;48.458;7.930;2023-02-11T17:12:04;3.05;;;2.85;;
14098;SDS011;7126;48.458;7.930;2023-02-11T17:14:30;3.08;;;1.90;;
14098;SDS011;7126;48.458;7.930;2023-02-11T17:16:55;6.57;;;4.45;;
14098;SDS011;7126;48.458;7.930;2023-02-11T17:19:22;6.28;;;4.57;;
14098;SDS011;7126;48.458;7.930;2023-02-11T17:21:49;2.55;;;2.42;;
14098;SDS011;7126;48.458;7.930;2023-02-11T17:24:16;2.67;;;2.47;;
14098;SDS011;7126;48.458;7.930;2023-02-11T17:26:44;3.95;;;3.65;;
14098;SDS011;7126;48.458;7.930;2023-02-11T17:29:13;2.60;;;2.42;;
14098;SDS011;7126;48.458;7.930;2023-02-11T17:31:40;3.55;;;3.25;;
14098;SDS011;7126;48.458;7.930;2023-02-11T17:34:06;2.72;;;2.55;;
14098;SDS011;7126;48.458;7.930;2023-02-11T17:36:32;3.15;;;2.85;;
14098;SDS011;7126;48.458;7.930;2023-02-11T17:38:58;3.53;;;3.25;;
14098;SDS011;7126;48.458;7.930;2023-02-11T17:41:25;2.45;;;2.25;;
14098;SDS011;7126;48.458;7.930;2023-02-11T17:43:51;2.35;;;2.35;;
14098;SDS011;7126;48.458;7.930;2023-02-11T17:46:17;3.20;;;3.00;;
14098;SDS011;7126;48.458;7.930;2023-02-11T17:48:43;3.03;;;2.88;;
14098;SDS011;7126;48.458;7.930;2023-02-11T17:53:48;2.70;;;2.53;;
14098;SDS011;7126;48.458;7.930;2023-02-11T17:56:13;3.10;;;2.30;;
14098;SDS011;7126;48.458;7.930;2023-02-11T17:58:39;2.83;;;2.38;;
14098;SDS011;7126;48.458;7.930;2023-02-11T18:01:04;2.47;;;2.28;;
14098;SDS011;7126;48.458;7.930;2023-02-11T18:03:30;3.10;;;2.90;;
14098;SDS011;7126;48.458;7.930;2023-02-11T18:06:00;2.80;;;2.60;;
14098;SDS011;7126;48.458;7.930;2023-02-11T18:08:26;5.00;;;2.83;;
14098;SDS011;7126;48.458;7.930;2023-02-11T18:10:52;4.28;;;3.97;;
14098;SDS011;7126;48.458;7.930;2023-02-11T18:13:18;3.53;;;3.28;;
14098;SDS011;7126;48.458;7.930;2023-02-11T18:15:43;3.70;;;3.50;;
14098;SDS011;7126;48.458;7.930;2023-02-11T18:18:09;2.63;;;2.53;;
14098;SDS011;7126;48.458;7.930;2023-02-11T18:20:34;4.47;;;4.07;;
14098;SDS011;7126;48.458;7.930;2023-02-11T18:23:00;2.75;;;2.55;;
14098;SDS011;7126;48.458;7.930;2023-02-11T18:25:25;3.95;;;2.58;;
14098;SDS011;7126;48.458;7.930;2023-02-11T18:27:51;2.80;;;2.63;;
14098;SDS011;7126;48.458;7.930;2023-02-11T18:30:17;2.83;;;2.70;;
14098;SDS011;7126;48.458;7.930;2023-02-11T18:32:43;3.55;;;2.13;;
14098;SDS011;7126;48.458;7.930;2023-02-11T18:35:10;2.53;;;2.33;;